CheckWX is a tool to help pilots better visualize weather data.  It is not intended as a substitute for an official pre-flight weather briefing.

08:54:24 UTC

KNGU METAR
Norfolk NS (Chambers Field) Airport
Norfolk, Virginia, USA
Current

55 mins ago

KNGU 230759Z 23004KT 10SM CLR 13/09 A3008 RMK AO2 SLP186 T01330089
Observed
Apr-23 @ 07:59 UTC
Wind
  • 230° at 4 KTS
Visibility
10 SM
Flight Rules
VFR
Cloud Levels
  • Clear skies
Temperature
13°C / 55°F
Dewpoint
C / 48°F
Humidity
77%
Altimeter
30.08" Hg
Pressure
1018.62 hPa
Previous

2 hours ago

KNGU 230659Z 23004KT 10SM CLR 13/09 A3009 RMK AO2 SLP187 T01330094
Observed
Apr-23 @ 06:59 UTC
Wind
  • 230° at 4 KTS
Visibility
10 SM
Flight Rules
VFR
Cloud Levels
  • Clear skies
Temperature
13°C / 55°F
Dewpoint
C / 48°F
Humidity
77%
Altimeter
30.09" Hg
Pressure
1018.92 hPa
Previous

3 hours ago

KNGU 230559Z 22004KT 10SM FEW280 14/10 A3010 RMK AO2 SLP192 T01390100 10194 20122 58003
Observed
Apr-23 @ 05:59 UTC
Wind
  • 220° at 4 KTS
Visibility
10 SM
Flight Rules
VFR
Cloud Levels
  • Few at 28,000' AGL
Temperature
14°C / 57°F
Dewpoint
10°C / 50°F
Humidity
77%
Altimeter
30.1" Hg
Pressure
1019.32 hPa